aviador You're here:

KAFN Decoded Metar

JAFFREY in NH, USA
Report Time2018-01-18 10:52:00
UTC Time2018-01-18 11:49:11
Flight Rules vfr VFR
WindCalm
Visibility9999 m
Phenomena:N/A
Clouds:N/A
Expected CloudBase > 400 ft AGL from Temp-Dew spread
CeilingNone
Temp-13°C (ISA -26)
Dew Point-14°C (92% RH)
AAT-16.3°C
QNH1013 hPa
Density Alt-2,201 ft
Elevation1,027 ft
Report Wrong Elevation
Raw Report
KAFN 181052Z AUTO 00000KT 10SM CLR M13/M14 A2991 RMK AO2 SLP150
T11281144=

Extra information for KAFN:More info

Metar Taf Metar & Taf Last 4 Metars F.Rules Stats Wind Profile Meteogram Temp Stats Airport Information Weather charts Add Link Nearby VenuesMetar ALERT Operation Metar Decoded Social comments

AIRNAV info for KAFN